Time;durP1;ratioP1;P1;durP2;ratioP2;P2;SDS_P1;SDS_P2;PMS_P1;PMS_P2;Temp;Humidity;BMP_temperature;BMP_pressure;BME280_temperature;BME280_humidity;BME280_pressure;Samples;Min_cycle;Max_cycle;Signal;HPM_P1;HPM_P2
2022/03/09 00:01:39;;;;;;;20.63;8.40;;;10.30;64.30;;;;;;5034352;28;20072;-73
2022/03/09 00:04:05;;;;;;;14.00;8.35;;;10.30;64.30;;;;;;5032798;28;20026;-73
2022/03/09 00:06:30;;;;;;;15.38;7.72;;;10.30;64.40;;;;;;5033340;28;20108;-72
2022/03/09 00:08:56;;;;;;;15.40;7.70;;;10.30;64.50;;;;;;5032827;28;20108;-74
2022/03/09 00:11:21;;;;;;;20.60;8.68;;;10.30;64.50;;;;;;5033033;28;20017;-73
2022/03/09 00:13:47;;;;;;;24.10;8.75;;;10.30;64.70;;;;;;5033065;28;20448;-73
2022/03/09 00:16:13;;;;;;;18.15;7.72;;;10.30;64.70;;;;;;5033050;28;20013;-73
2022/03/09 00:18:38;;;;;;;32.08;8.65;;;10.30;64.60;;;;;;5032847;28;20375;-73
2022/03/09 00:21:04;;;;;;;38.17;8.05;;;10.30;64.50;;;;;;5034032;28;20108;-73
2022/03/09 00:23:29;;;;;;;18.90;8.13;;;10.30;64.50;;;;;;5032139;28;20470;-72
2022/03/09 00:25:55;;;;;;;14.98;6.97;;;10.30;64.60;;;;;;5032443;28;20029;-72
2022/03/09 00:28:21;;;;;;;15.40;7.88;;;10.20;64.50;;;;;;5034238;28;20356;-73
2022/03/09 00:30:46;;;;;;;14.43;7.28;;;10.20;64.60;;;;;;5033772;28;20480;-73
2022/03/09 00:33:12;;;;;;;15.77;7.63;;;10.20;64.60;;;;;;5034039;28;20466;-73
2022/03/09 00:35:42;;;;;;;14.20;7.22;;;10.30;64.60;;;;;;5033924;28;20061;-73
2022/03/09 00:38:08;;;;;;;15.48;7.75;;;10.30;64.50;;;;;;5034251;28;20018;-72
2022/03/09 00:40:34;;;;;;;12.90;6.93;;;10.30;64.40;;;;;;5033392;28;20032;-73
2022/03/09 00:43:00;;;;;;;15.10;7.43;;;10.30;64.30;;;;;;5032389;28;20025;-73
2022/03/09 00:45:26;;;;;;;11.40;6.47;;;10.30;64.40;;;;;;5033776;28;20017;-73
2022/03/09 00:47:51;;;;;;;16.23;7.22;;;10.20;64.50;;;;;;5032608;28;20493;-73
2022/03/09 00:50:17;;;;;;;14.88;7.40;;;10.20;64.50;;;;;;5031608;28;20057;-73
2022/03/09 00:52:42;;;;;;;12.75;7.28;;;10.20;64.50;;;;;;5033557;28;20029;-73
2022/03/09 00:55:08;;;;;;;16.67;7.18;;;10.20;64.60;;;;;;5032387;28;20035;-73
2022/03/09 00:57:34;;;;;;;12.27;7.22;;;10.20;64.60;;;;;;5032349;28;20018;-73
2022/03/09 01:00:00;;;;;;;13.77;7.05;;;10.20;64.60;;;;;;5033341;28;20040;-72
2022/03/09 01:02:25;;;;;;;14.38;7.38;;;10.20;64.60;;;;;;5032429;28;20531;-73
2022/03/09 01:04:51;;;;;;;14.93;7.07;;;10.20;64.60;;;;;;5031753;28;20025;-73
2022/03/09 01:07:16;;;;;;;15.20;7.15;;;10.20;64.60;;;;;;5032777;28;20022;-73
2022/03/09 01:09:42;;;;;;;12.60;6.55;;;10.20;64.60;;;;;;5032838;28;20035;-73
2022/03/09 01:12:08;;;;;;;12.63;6.55;;;10.20;64.60;;;;;;5033447;28;20467;-72
2022/03/09 01:14:34;;;;;;;13.52;6.65;;;10.20;64.70;;;;;;5031808;28;20474;-73
2022/03/09 01:16:59;;;;;;;14.52;6.70;;;10.20;64.70;;;;;;5032159;28;20017;-73
2022/03/09 01:19:25;;;;;;;12.10;6.55;;;10.20;64.70;;;;;;5031659;28;20394;-73
2022/03/09 01:21:50;;;;;;;13.10;6.88;;;10.20;64.70;;;;;;5032753;28;20053;-73
2022/03/09 01:24:16;;;;;;;11.63;6.40;;;10.20;64.70;;;;;;5031819;28;20498;-73
2022/03/09 01:26:42;;;;;;;12.38;6.82;;;10.20;64.80;;;;;;5033100;28;20026;-73
2022/03/09 01:29:09;;;;;;;12.10;6.68;;;10.20;64.80;;;;;;5031189;28;20025;-71
2022/03/09 01:31:35;;;;;;;10.27;5.80;;;10.20;64.80;;;;;;5032982;28;20092;-73
2022/03/09 01:34:00;;;;;;;11.95;6.47;;;10.20;64.90;;;;;;5031701;28;20021;-73
2022/03/09 01:36:26;;;;;;;11.90;6.50;;;10.20;64.80;;;;;;5031365;28;20376;-73
2022/03/09 01:38:52;;;;;;;13.57;6.15;;;10.20;64.90;;;;;;5031640;28;20027;-73
2022/03/09 01:41:17;;;;;;;14.23;6.68;;;10.20;64.90;;;;;;5031355;28;20483;-72
2022/03/09 01:43:43;;;;;;;11.75;6.18;;;10.20;64.90;;;;;;5031556;28;20044;-73
2022/03/09 01:46:08;;;;;;;12.93;6.45;;;10.20;64.90;;;;;;5032681;28;20108;-73
2022/03/09 01:48:34;;;;;;;11.65;6.43;;;10.20;64.80;;;;;;5032504;28;20387;-72
2022/03/09 01:50:59;;;;;;;13.13;6.40;;;10.20;64.80;;;;;;5032249;28;20026;-73
2022/03/09 01:53:25;;;;;;;11.77;6.60;;;10.10;64.70;;;;;;5031005;28;20029;-72
2022/03/09 01:55:51;;;;;;;12.18;6.47;;;10.10;64.70;;;;;;5032556;28;20033;-72
2022/03/09 01:58:16;;;;;;;12.57;6.85;;;10.10;64.60;;;;;;5032080;28;20060;-72
2022/03/09 02:00:42;;;;;;;11.05;6.57;;;10.10;64.70;;;;;;5030169;28;20029;-73
2022/03/09 02:03:07;;;;;;;12.13;6.78;;;10.10;64.60;;;;;;5031203;28;20462;-71
2022/03/09 02:05:34;;;;;;;11.93;6.93;;;10.10;64.60;;;;;;5032322;28;20083;-72
2022/03/09 02:10:45;;;;;;;16.80;7.03;;;10.10;64.60;;;;;;5031630;28;20051;-73
2022/03/09 02:13:11;;;;;;;14.27;7.55;;;10.10;64.60;;;;;;5032118;28;20018;-73
2022/03/09 02:15:37;;;;;;;13.68;7.03;;;10.10;64.60;;;;;;5030693;28;20124;-74
2022/03/09 02:18:03;;;;;;;13.35;6.70;;;10.10;64.50;;;;;;5030749;28;20021;-73
2022/03/09 02:20:29;;;;;;;14.65;6.95;;;10.10;64.50;;;;;;5031756;28;20033;-72
2022/03/09 02:22:55;;;;;;;13.63;6.88;;;10.10;64.50;;;;;;5030693;28;20029;-73
2022/03/09 02:25:21;;;;;;;13.07;6.82;;;10.10;64.60;;;;;;5031364;28;20079;-72
2022/03/09 02:27:47;;;;;;;11.30;6.28;;;10.10;64.60;;;;;;5031978;28;20537;-73
2022/03/09 02:30:15;;;;;;;11.75;6.25;;;10.10;64.50;;;;;;5031667;28;20124;-73
2022/03/09 02:32:42;;;;;;;14.40;6.30;;;10.10;64.50;;;;;;5032239;28;20454;-72
2022/03/09 02:35:10;;;;;;;12.95;6.63;;;10.10;64.40;;;;;;5031893;28;20026;-73
2022/03/09 02:37:36;;;;;;;11.80;6.65;;;10.10;64.50;;;;;;5031848;28;20543;-73
2022/03/09 02:40:01;;;;;;;13.13;6.20;;;10.10;64.50;;;;;;5063350;28;20144;-73
2022/03/09 02:42:27;;;;;;;13.63;6.47;;;10.10;64.50;;;;;;5030430;28;20490;-73
2022/03/09 02:44:52;;;;;;;13.00;6.47;;;10.10;64.60;;;;;;5029942;28;20475;-72
2022/03/09 02:47:18;;;;;;;10.35;5.80;;;10.10;64.60;;;;;;5030297;28;20510;-73
2022/03/09 02:49:43;;;;;;;11.40;6.40;;;10.10;64.60;;;;;;5030110;28;20021;-73
2022/03/09 02:52:09;;;;;;;12.13;6.30;;;10.10;64.60;;;;;;5030185;28;20022;-73
2022/03/09 02:54:34;;;;;;;10.02;6.15;;;10.10;64.60;;;;;;5031347;28;20564;-73
2022/03/09 02:57:00;;;;;;;10.52;5.95;;;10.10;64.60;;;;;;5031460;28;20616;-73
2022/03/09 02:59:25;;;;;;;11.65;6.40;;;10.10;65.00;;;;;;5029775;28;20029;-73
2022/03/09 03:01:51;;;;;;;12.75;6.28;;;10.10;64.50;;;;;;5031390;28;20116;-73
2022/03/09 03:04:18;;;;;;;12.70;6.05;;;10.10;64.60;;;;;;5030115;28;20026;-73
2022/03/09 03:06:43;;;;;;;11.35;6.20;;;10.10;64.60;;;;;;5029885;28;20541;-72
2022/03/09 03:09:09;;;;;;;12.02;6.20;;;10.10;64.60;;;;;;5031305;28;20013;-72
2022/03/09 03:11:34;;;;;;;10.25;6.03;;;10.10;64.60;;;;;;5031536;28;20036;-73
2022/03/09 03:14:00;;;;;;;10.15;5.85;;;10.10;64.60;;;;;;5030296;28;20033;-73
2022/03/09 03:16:25;;;;;;;14.93;6.07;;;10.10;64.60;;;;;;5030947;28;20096;-73
2022/03/09 03:18:51;;;;;;;11.23;6.15;;;10.10;64.60;;;;;;5031630;28;20079;-73
2022/03/09 03:21:16;;;;;;;13.57;6.35;;;10.10;64.60;;;;;;5030831;28;20029;-72
2022/03/09 03:23:42;;;;;;;10.25;5.93;;;10.10;64.70;;;;;;5029916;28;20029;-73
2022/03/09 03:26:07;;;;;;;10.27;5.15;;;10.00;64.60;;;;;;5029851;28;20021;-73
2022/03/09 03:28:33;;;;;;;9.27;5.72;;;10.10;64.60;;;;;;5030037;28;20081;-73
2022/03/09 03:30:59;;;;;;;10.98;5.82;;;10.10;64.50;;;;;;5026503;28;20021;-73
2022/03/09 03:33:25;;;;;;;12.20;5.78;;;10.00;64.50;;;;;;5027792;28;20486;-73
2022/03/09 03:35:51;;;;;;;11.32;6.00;;;10.10;64.50;;;;;;5033861;28;20494;-73
2022/03/09 03:38:17;;;;;;;13.90;5.90;;;10.10;64.50;;;;;;5035287;28;20433;-73
2022/03/09 03:40:43;;;;;;;10.32;5.93;;;10.00;64.40;;;;;;5034476;28;20510;-73
2022/03/09 03:43:09;;;;;;;10.77;6.85;;;10.00;65.00;;;;;;5035015;28;20022;-73
2022/03/09 03:45:35;;;;;;;10.77;5.80;;;10.10;64.60;;;;;;5035014;28;20490;-73
2022/03/09 03:48:02;;;;;;;10.50;6.10;;;10.00;64.50;;;;;;5033674;28;20041;-72
2022/03/09 03:50:27;;;;;;;13.00;6.07;;;10.00;64.50;;;;;;5033255;28;20104;-73
2022/03/09 03:52:53;;;;;;;9.10;5.38;;;10.00;64.50;;;;;;5034956;28;20101;-73
2022/03/09 03:55:18;;;;;;;9.57;5.32;;;10.00;64.50;;;;;;5034195;28;20033;-73
2022/03/09 03:57:44;;;;;;;9.45;5.60;;;10.00;64.60;;;;;;5033210;28;20071;-73
2022/03/09 04:00:11;;;;;;;9.32;5.63;;;10.00;64.60;;;;;;5034511;28;20029;-72
2022/03/09 04:02:37;;;;;;;10.18;5.45;;;10.00;64.60;;;;;;5034448;28;20100;-73
2022/03/09 04:05:04;;;;;;;10.75;5.90;;;10.00;64.70;;;;;;5033360;28;20559;-73
2022/03/09 04:07:30;;;;;;;9.10;5.28;;;10.00;64.60;;;;;;5034306;28;20011;-73
2022/03/09 04:09:56;;;;;;;13.85;5.53;;;10.00;64.70;;;;;;5033109;28;20389;-73
2022/03/09 04:12:23;;;;;;;12.10;5.47;;;10.00;64.60;;;;;;5034361;28;20025;-73
2022/03/09 04:14:50;;;;;;;9.98;5.53;;;10.00;64.60;;;;;;5034048;28;20112;-74
2022/03/09 04:17:15;;;;;;;8.90;5.43;;;10.00;64.70;;;;;;5033257;28;20029;-73
2022/03/09 04:19:41;;;;;;;8.63;5.60;;;10.00;64.70;;;;;;5032813;28;20525;-73
2022/03/09 04:22:07;;;;;;;11.23;5.63;;;10.00;65.30;;;;;;5034527;28;20030;-73
2022/03/09 04:24:32;;;;;;;8.73;5.05;;;10.00;64.80;;;;;;5034242;28;20147;-73
2022/03/09 04:26:58;;;;;;;8.73;5.28;;;10.00;64.70;;;;;;5033978;28;20026;-72
2022/03/09 04:29:23;;;;;;;9.68;5.40;;;10.00;64.70;;;;;;5032437;28;20031;-73
2022/03/09 04:31:49;;;;;;;9.98;5.93;;;10.00;64.70;;;;;;5034150;28;20021;-73
2022/03/09 04:34:14;;;;;;;9.43;5.80;;;10.00;64.80;;;;;;5032388;28;20478;-73
2022/03/09 04:36:40;;;;;;;9.88;6.28;;;10.00;64.80;;;;;;5033633;28;20025;-72
2022/03/09 04:39:06;;;;;;;10.45;6.03;;;10.00;65.30;;;;;;5033902;28;20026;-71
2022/03/09 04:41:32;;;;;;;9.60;5.88;;;10.00;64.80;;;;;;5032364;28;20541;-73
2022/03/09 04:43:57;;;;;;;9.30;5.50;;;10.00;64.80;;;;;;5032176;28;20029;-72
2022/03/09 04:46:23;;;;;;;9.73;6.00;;;10.00;64.80;;;;;;5033673;28;20022;-73
2022/03/09 04:48:51;;;;;;;8.30;5.60;;;10.00;64.80;;;;;;5033862;28;20479;-73
2022/03/09 04:51:17;;;;;;;9.75;5.82;;;10.00;64.70;;;;;;5033759;28;20072;-72
2022/03/09 04:53:42;;;;;;;8.60;5.82;;;10.00;64.70;;;;;;5032621;28;20029;-73
2022/03/09 04:56:08;;;;;;;8.85;5.65;;;10.00;64.80;;;;;;5032656;28;20538;-73
2022/03/09 04:58:34;;;;;;;10.38;5.57;;;10.00;64.70;;;;;;5032730;28;20494;-73
2022/03/09 05:00:59;;;;;;;9.43;5.88;;;10.00;65.30;;;;;;5032162;28;20489;-74
2022/03/09 05:03:25;;;;;;;7.97;5.38;;;10.00;64.70;;;;;;5032666;28;20717;-73
2022/03/09 05:05:51;;;;;;;10.93;5.78;;;9.90;64.60;;;;;;5032616;28;20021;-73
2022/03/09 05:08:16;;;;;;;10.68;5.93;;;9.90;64.60;;;;;;5033615;28;20021;-74
2022/03/09 05:10:42;;;;;;;9.38;5.50;;;9.90;64.50;;;;;;5032283;28;20005;-72
2022/03/09 05:13:07;;;;;;;9.45;5.82;;;9.90;64.50;;;;;;5032926;28;20032;-73
2022/03/09 05:15:33;;;;;;;9.73;5.68;;;9.90;64.50;;;;;;5029944;28;20053;-74
2022/03/09 05:17:58;;;;;;;11.40;6.85;;;9.90;64.40;;;;;;5030912;28;20060;-74
2022/03/09 05:20:24;;;;;;;12.27;9.32;;;9.90;64.40;;;;;;5030528;28;20501;-72
2022/03/09 05:22:51;;;;;;;17.00;11.88;;;9.90;64.30;;;;;;5031841;28;20095;-74
2022/03/09 05:25:18;;;;;;;15.57;12.13;;;9.90;64.30;;;;;;5032908;28;20034;-73
2022/03/09 05:27:44;;;;;;;17.70;12.95;;;9.90;64.20;;;;;;5030571;28;20048;-74
2022/03/09 05:30:10;;;;;;;13.75;11.02;;;9.90;64.20;;;;;;5029685;28;20021;-73
2022/03/09 05:32:36;;;;;;;14.00;11.27;;;9.90;64.20;;;;;;5027539;28;20442;-73
2022/03/09 05:35:03;;;;;;;13.77;10.38;;;9.90;64.20;;;;;;5031711;28;20026;-74
2022/03/09 05:37:35;;;;;;;14.55;10.40;;;9.90;64.20;;;;;;5032918;28;20021;-73
2022/03/09 05:40:00;;;;;;;;;;;9.90;64.20;;;;;;5029838;28;20025;-71
2022/03/09 05:42:26;;;;;;;13.05;10.25;;;9.90;64.20;;;;;;5028499;28;19913;-72
2022/03/09 05:44:51;;;;;;;20.92;10.50;;;9.90;64.20;;;;;;5030231;28;20117;-72
2022/03/09 05:47:17;;;;;;;14.02;10.05;;;9.90;64.20;;;;;;5030546;28;20025;-71
2022/03/09 05:49:43;;;;;;;13.02;9.23;;;10.00;64.30;;;;;;5029255;28;20044;-73
2022/03/09 05:52:08;;;;;;;11.85;8.98;;;9.90;64.20;;;;;;5029272;28;20025;-73
2022/03/09 05:54:34;;;;;;;12.27;9.50;;;9.90;64.30;;;;;;5013094;28;20030;-73
2022/03/09 05:56:59;;;;;;;12.63;9.23;;;9.90;64.30;;;;;;5028506;28;20044;-72
2022/03/09 05:59:25;;;;;;;12.95;9.18;;;9.90;64.20;;;;;;5020713;28;20033;-74
2022/03/09 06:01:50;;;;;;;12.80;9.25;;;9.90;64.20;;;;;;5008544;28;20435;-74
2022/03/09 06:04:16;;;;;;;12.52;8.82;;;9.90;64.10;;;;;;5009194;28;20021;-73
2022/03/09 06:06:41;;;;;;;11.75;8.80;;;9.90;64.10;;;;;;5020238;28;20049;-73
2022/03/09 06:09:07;;;;;;;12.15;8.98;;;9.90;64.10;;;;;;5029981;28;20017;-74
2022/03/09 06:11:32;;;;;;;13.65;9.85;;;9.90;64.00;;;;;;5029642;28;20022;-76
2022/03/09 06:13:58;;;;;;;13.98;10.50;;;9.90;64.10;;;;;;5026752;28;20394;-74
2022/03/09 06:16:23;;;;;;;16.90;10.27;;;9.90;64.10;;;;;;5029294;28;20072;-76
2022/03/09 06:18:49;;;;;;;14.50;11.15;;;9.90;64.10;;;;;;5029221;28;20053;-74
2022/03/09 06:21:15;;;;;;;16.17;11.77;;;9.90;64.10;;;;;;5029966;28;20017;-77
2022/03/09 06:23:41;;;;;;;17.10;11.50;;;9.90;64.00;;;;;;5028143;28;20017;-73
2022/03/09 06:26:08;;;;;;;20.42;14.48;;;9.90;63.80;;;;;;5028373;28;20040;-73
2022/03/09 06:28:33;;;;;;;21.13;16.27;;;9.90;63.90;;;;;;5029422;28;20467;-73
2022/03/09 06:30:59;;;;;;;27.10;17.25;;;9.90;64.10;;;;;;5028937;28;20036;-72
2022/03/09 06:33:25;;;;;;;28.70;18.27;;;9.90;64.00;;;;;;5044812;28;20028;-72
2022/03/09 06:35:51;;;;;;;25.25;18.20;;;9.90;63.90;;;;;;5029048;28;20056;-73
2022/03/09 06:38:16;;;;;;;29.85;18.20;;;9.90;63.70;;;;;;5044402;28;20529;-74
2022/03/09 06:40:43;;;;;;;28.98;17.00;;;10.00;63.80;;;;;;5028671;28;20041;-74
2022/03/09 06:43:09;;;;;;;23.80;14.43;;;10.00;63.80;;;;;;5028947;28;20033;-74
2022/03/09 06:45:35;;;;;;;21.60;13.50;;;10.00;62.10;;;;;;5028447;28;20037;-74
2022/03/09 06:48:02;;;;;;;22.10;13.13;;;9.90;61.30;;;;;;5043865;28;20437;-75
2022/03/09 06:50:28;;;;;;;20.80;14.10;;;9.90;61.90;;;;;;5027487;28;20483;-73
2022/03/09 06:52:53;;;;;;;20.63;13.25;;;9.90;62.20;;;;;;5043354;28;20076;-74
2022/03/09 06:55:19;;;;;;;21.58;13.20;;;10.00;62.50;;;;;;5043880;28;20487;-74
2022/03/09 06:57:45;;;;;;;18.30;12.82;;;10.00;62.70;;;;;;5044589;28;20791;-73
2022/03/09 07:00:16;;;;;;;24.75;13.27;;;10.00;62.80;;;;;;5042110;28;20025;-72
2022/03/09 07:02:43;;;;;;;18.92;12.57;;;10.10;62.90;;;;;;5043947;28;20083;-73
2022/03/09 07:05:09;;;;;;;20.48;12.70;;;10.10;62.90;;;;;;5028857;28;20029;-74
2022/03/09 07:07:35;;;;;;;19.08;12.45;;;10.20;62.90;;;;;;5047827;28;20031;-76
2022/03/09 07:10:01;;;;;;;16.27;11.82;;;10.20;62.80;;;;;;5048406;28;20026;-72
2022/03/09 07:12:26;;;;;;;22.48;13.07;;;10.20;62.80;;;;;;5047738;28;20437;-75
2022/03/09 07:14:52;;;;;;;21.33;13.18;;;10.30;62.70;;;;;;5047955;28;20037;-73
2022/03/09 07:17:18;;;;;;;19.63;13.68;;;10.30;62.50;;;;;;5048175;28;20033;-76
2022/03/09 07:19:44;;;;;;;21.63;14.00;;;10.30;62.30;;;;;;5047871;28;20371;-74
2022/03/09 07:22:10;;;;;;;19.65;13.63;;;10.30;62.30;;;;;;5047485;28;20060;-74
2022/03/09 07:24:36;;;;;;;19.02;13.40;;;10.30;62.30;;;;;;5047804;28;20040;-74
2022/03/09 07:27:01;;;;;;;19.85;13.80;;;10.30;62.40;;;;;;5047383;28;20029;-74
2022/03/09 07:29:27;;;;;;;20.27;14.23;;;10.40;62.50;;;;;;5047468;28;20026;-74
2022/03/09 07:31:53;;;;;;;18.27;12.60;;;10.40;62.60;;;;;;5047695;28;20029;-72
2022/03/09 07:34:20;;;;;;;17.13;12.88;;;10.50;62.60;;;;;;5032421;28;20025;-72
2022/03/09 07:36:45;;;;;;;19.05;13.32;;;10.50;62.60;;;;;;5047705;28;20634;-74
2022/03/09 07:39:11;;;;;;;19.05;12.68;;;10.50;62.50;;;;;;5047569;28;20124;-74
2022/03/09 07:41:36;;;;;;;17.75;12.90;;;10.50;62.50;;;;;;5047277;28;20443;-74
2022/03/09 07:44:02;;;;;;;17.98;12.45;;;10.60;62.50;;;;;;5031943;28;20073;-74
2022/03/09 07:46:27;;;;;;;15.25;11.38;;;10.60;62.60;;;;;;5031649;28;20075;-73
2022/03/09 07:48:53;;;;;;;15.98;12.18;;;10.60;62.80;;;;;;5030563;28;20025;-73
2022/03/09 07:51:18;;;;;;;15.63;11.52;;;10.60;62.70;;;;;;5044948;28;20041;-74
2022/03/09 07:53:45;;;;;;;17.48;11.60;;;10.60;62.60;;;;;;5045342;28;20095;-75
2022/03/09 07:56:11;;;;;;;15.43;11.50;;;10.60;62.30;;;;;;5044465;28;20033;-74
2022/03/09 07:58:37;;;;;;;17.75;11.75;;;10.70;62.10;;;;;;5044703;28;20030;-76
2022/03/09 08:01:03;;;;;;;17.55;11.90;;;10.70;62.40;;;;;;5044251;28;20736;-74
2022/03/09 08:03:29;;;;;;;16.65;12.27;;;10.70;62.50;;;;;;5028746;28;20039;-73
2022/03/09 08:05:54;;;;;;;15.90;11.55;;;10.70;62.70;;;;;;5045178;28;20028;-73
2022/03/09 08:08:20;;;;;;;18.15;12.60;;;10.70;62.80;;;;;;5044654;28;20626;-73
2022/03/09 08:10:45;;;;;;;18.27;12.20;;;10.80;62.80;;;;;;5044758;28;20030;-73
2022/03/09 08:13:11;;;;;;;16.48;12.07;;;10.80;62.90;;;;;;5045178;28;20080;-75
2022/03/09 08:15:37;;;;;;;20.38;12.40;;;10.80;62.90;;;;;;5029671;28;20083;-74
2022/03/09 08:18:04;;;;;;;19.05;12.68;;;10.80;62.90;;;;;;5029267;28;20029;-73
2022/03/09 08:20:29;;;;;;;15.63;12.15;;;10.90;63.00;;;;;;5044679;28;20129;-73
2022/03/09 08:22:55;;;;;;;16.13;11.63;;;10.90;63.00;;;;;;5044511;28;20120;-73
2022/03/09 08:25:20;;;;;;;18.20;12.77;;;10.90;63.00;;;;;;5029210;28;20493;-72
2022/03/09 08:27:46;;;;;;;17.92;11.93;;;10.90;63.10;;;;;;5029167;28;20022;-75
2022/03/09 08:30:12;;;;;;;15.07;10.88;;;11.00;63.10;;;;;;5044403;28;20675;-73
2022/03/09 08:32:37;;;;;;;15.95;11.35;;;11.00;63.10;;;;;;5029694;28;20483;-73
2022/03/09 08:35:04;;;;;;;16.58;11.50;;;11.00;63.00;;;;;;5028979;28;20029;-73
2022/03/09 08:37:29;;;;;;;16.85;11.55;;;11.00;63.00;;;;;;5028404;28;20033;-73
2022/03/09 08:39:55;;;;;;;15.20;10.60;;;11.00;63.00;;;;;;5044399;28;20026;-74
2022/03/09 08:42:20;;;;;;;14.57;10.50;;;11.10;63.10;;;;;;5044432;28;20095;-72
2022/03/09 08:44:46;;;;;;;15.02;10.02;;;11.10;63.10;;;;;;5044605;28;20032;-74
2022/03/09 08:47:12;;;;;;;16.08;10.75;;;11.10;63.10;;;;;;5044271;28;20239;-73
2022/03/09 08:49:39;;;;;;;13.13;9.57;;;11.10;63.00;;;;;;5044098;28;20032;-73
2022/03/09 08:52:10;;;;;;;13.85;9.70;;;11.20;63.10;;;;;;5027563;28;20017;-73
2022/03/09 08:54:37;;;;;;;13.67;9.73;;;11.20;63.10;;;;;;5028876;28;20541;-74
2022/03/09 08:57:03;;;;;;;13.93;10.30;;;11.20;63.10;;;;;;5027826;28;20303;-72
2022/03/09 08:59:29;;;;;;;15.48;10.18;;;11.20;63.10;;;;;;5028626;28;20029;-74
2022/03/09 09:01:54;;;;;;;13.35;9.45;;;11.20;63.20;;;;;;5044010;28;20030;-76
2022/03/09 09:04:20;;;;;;;13.07;9.57;;;11.30;63.30;;;;;;5027603;28;20030;-74
2022/03/09 09:06:45;;;;;;;14.40;9.88;;;11.30;63.20;;;;;;5026871;28;20030;-76
2022/03/09 09:09:11;;;;;;;14.23;9.73;;;11.30;63.30;;;;;;5027212;28;20072;-73
2022/03/09 09:11:38;;;;;;;13.05;9.38;;;11.30;63.40;;;;;;5027512;28;20030;-73
2022/03/09 09:14:03;;;;;;;12.30;9.25;;;11.30;63.30;;;;;;5027728;28;20047;-73
2022/03/09 09:16:29;;;;;;;13.30;9.15;;;11.30;63.40;;;;;;5027079;28;20028;-72
2022/03/09 09:18:54;;;;;;;13.00;9.30;;;11.30;63.40;;;;;;5028579;28;20037;-74
2022/03/09 09:21:20;;;;;;;12.82;9.10;;;11.30;63.40;;;;;;5028166;28;20053;-72
2022/03/09 09:23:46;;;;;;;12.27;9.15;;;11.40;63.40;;;;;;5028531;28;20428;-73
2022/03/09 09:26:14;;;;;;;13.43;9.45;;;11.30;63.90;;;;;;5026817;28;20022;-72
2022/03/09 09:28:40;;;;;;;12.02;9.20;;;11.40;63.50;;;;;;5027714;28;20390;-72
2022/03/09 09:31:05;;;;;;;13.10;9.07;;;11.40;63.50;;;;;;5026844;28;20033;-74
2022/03/09 09:33:31;;;;;;;12.30;8.98;;;11.40;63.60;;;;;;5028004;28;20834;-72
2022/03/09 09:35:56;;;;;;;11.98;8.27;;;11.40;63.60;;;;;;5026729;28;20040;-74
2022/03/09 09:38:22;;;;;;;12.52;8.75;;;11.40;63.60;;;;;;5028085;28;20025;-74
2022/03/09 09:40:51;;;;;;;12.40;8.90;;;11.40;63.60;;;;;;5026649;28;20420;-75
2022/03/09 09:43:17;;;;;;;11.77;8.40;;;11.50;63.50;;;;;;5027859;28;20487;-73
2022/03/09 09:45:43;;;;;;;11.63;8.27;;;11.50;63.40;;;;;;5028073;28;20045;-73
2022/03/09 09:48:10;;;;;;;11.77;8.82;;;11.50;63.40;;;;;;5027757;28;20022;-74
2022/03/09 09:50:37;;;;;;;12.52;8.55;;;11.50;63.40;;;;;;5026093;28;20025;-73
2022/03/09 09:53:10;;;;;;;13.73;8.82;;;11.60;63.50;;;;;;5026504;28;20491;-74
2022/03/09 09:55:36;;;;;;;13.32;8.38;;;11.60;63.50;;;;;;5026341;28;20596;-76
2022/03/09 09:58:03;;;;;;;12.48;8.30;;;11.60;63.50;;;;;;5026496;28;20040;-74
2022/03/09 10:00:30;;;;;;;10.55;7.60;;;11.60;63.50;;;;;;5025778;28;20120;-73
2022/03/09 10:02:55;;;;;;;12.18;7.85;;;11.60;63.50;;;;;;5027853;28;20026;-73
2022/03/09 10:05:21;;;;;;;11.48;8.20;;;11.60;63.40;;;;;;5025870;28;20398;-72
2022/03/09 10:08:05;;;;;;;11.18;8.05;;;11.60;63.40;;;;;;5025967;28;20056;-74
2022/03/09 10:10:33;;;;;;;12.25;7.90;;;11.70;63.50;;;;;;5025481;28;20068;-72
2022/03/09 10:13:17;;;;;;;11.70;7.97;;;11.70;63.50;;;;;;5027259;28;20647;-74
2022/03/09 10:15:47;;;;;;;11.65;8.27;;;11.70;63.50;;;;;;5025972;28;20029;-74
2022/03/09 10:18:21;;;;;;;12.55;8.50;;;11.70;63.50;;;;;;5027406;28;20094;-74
2022/03/09 10:20:48;;;;;;;11.35;7.80;;;11.70;63.50;;;;;;5026051;28;20479;-74
2022/03/09 10:23:15;;;;;;;10.77;7.88;;;11.70;63.50;;;;;;5026950;28;20487;-74
2022/03/09 10:25:41;;;;;;;11.93;8.38;;;11.70;63.20;;;;;;5019065;28;20491;-75
2022/03/09 10:28:10;;;;;;;11.35;8.00;;;11.70;63.10;;;;;;5013464;28;20380;-74
2022/03/09 10:30:39;;;;;;;12.52;7.78;;;11.70;63.10;;;;;;5006486;28;20037;-73
2022/03/09 10:33:10;;;;;;;11.32;8.05;;;11.70;63.10;;;;;;5025941;28;20021;-73
2022/03/09 10:35:47;;;;;;;12.05;7.60;;;11.70;63.20;;;;;;5024867;28;20033;-74
2022/03/09 10:38:15;;;;;;;12.93;7.57;;;11.70;63.20;;;;;;5026206;28;20037;-75
2022/03/09 10:40:43;;;;;;;12.60;7.95;;;11.70;63.30;;;;;;5024993;28;20036;-73
2022/03/09 10:43:18;;;;;;;11.10;7.95;;;11.70;63.30;;;;;;5025181;28;20054;-75
2022/03/09 10:46:12;;;;;;;11.57;7.93;;;11.70;63.30;;;;;;5025069;28;20029;-77
2022/03/09 10:48:49;;;;;;;10.45;7.22;;;11.70;63.40;;;;;;5026570;28;20490;-75
2022/03/09 10:51:31;;;;;;;11.32;7.40;;;11.70;63.40;;;;;;5024807;28;20025;-73
2022/03/09 10:53:58;;;;;;;11.77;7.50;;;11.80;63.30;;;;;;5025202;28;20569;-73
2022/03/09 10:56:23;;;;;;;11.07;7.00;;;11.80;63.30;;;;;;5025313;28;20139;-73
2022/03/09 10:58:49;;;;;;;11.88;7.57;;;11.80;63.20;;;;;;5026591;28;20021;-74
2022/03/09 11:01:17;;;;;;;10.80;7.07;;;11.80;63.20;;;;;;5025080;28;20479;-73
2022/03/09 11:03:43;;;;;;;9.77;7.18;;;11.80;63.10;;;;;;5026633;28;20487;-73
2022/03/09 11:06:10;;;;;;;10.90;7.28;;;11.80;63.00;;;;;;5024256;28;20485;-73
2022/03/09 11:08:37;;;;;;;11.10;7.63;;;11.80;63.10;;;;;;5025087;28;20075;-75
2022/03/09 11:11:04;;;;;;;11.35;7.20;;;11.80;63.20;;;;;;5024724;28;20438;-73
2022/03/09 11:13:32;;;;;;;10.80;7.35;;;11.80;63.20;;;;;;5026163;28;20049;-73
2022/03/09 11:15:58;;;;;;;11.07;7.00;;;11.80;63.20;;;;;;5025776;28;20037;-73
2022/03/09 11:18:26;;;;;;;10.40;7.18;;;11.80;63.20;;;;;;5026382;28;20026;-73
2022/03/09 11:21:00;;;;;;;10.10;6.90;;;11.80;63.20;;;;;;5025626;28;20037;-73
2022/03/09 11:23:28;;;;;;;10.02;7.05;;;11.80;63.30;;;;;;5026276;28;20068;-73
2022/03/09 11:26:24;;;;;;;9.15;6.50;;;11.90;63.30;;;;;;5026156;28;20037;-73
2022/03/09 11:29:03;;;;;;;10.65;7.25;;;11.80;63.20;;;;;;5025760;28;20022;-72
2022/03/09 11:31:47;;;;;;;11.68;7.57;;;11.90;63.20;;;;;;5024493;28;20454;-73
2022/03/09 11:34:30;;;;;;;10.25;6.72;;;11.90;63.20;;;;;;5026287;28;20024;-73
2022/03/09 11:36:58;;;;;;;10.23;7.13;;;11.90;63.30;;;;;;5024701;28;20120;-76
2022/03/09 11:39:24;;;;;;;11.23;6.55;;;11.90;63.20;;;;;;5025774;28;20100;-74
2022/03/09 11:42:22;;;;;;;12.15;7.00;;;11.90;63.20;;;;;;5024203;28;20398;-73
2022/03/09 11:45:14;;;;;;;10.40;6.93;;;11.90;63.20;;;;;;5025445;28;20104;-73
2022/03/09 11:48:03;;;;;;;8.95;6.72;;;11.90;63.10;;;;;;5024863;28;20529;-74
2022/03/09 11:50:32;;;;;;;11.23;7.13;;;11.90;63.20;;;;;;5024654;28;20028;-74
2022/03/09 11:53:06;;;;;;;10.25;7.00;;;11.90;63.30;;;;;;5026909;28;20025;-73
2022/03/09 11:55:33;;;;;;;10.32;7.00;;;11.90;63.30;;;;;;5029281;28;20092;-73
2022/03/09 11:57:58;;;;;;;10.48;7.22;;;11.90;63.40;;;;;;5028803;28;20799;-75
2022/03/09 12:00:24;;;;;;;9.77;6.82;;;11.80;63.30;;;;;;5026431;28;20040;-74
2022/03/09 12:02:54;;;;;;;9.18;6.28;;;11.90;63.50;;;;;;5020546;28;20029;-73
2022/03/09 12:05:34;;;;;;;9.57;6.97;;;11.90;63.40;;;;;;5028109;28;20030;-73
2022/03/09 12:08:10;;;;;;;9.15;6.30;;;11.90;63.40;;;;;;5028040;28;20398;-73
2022/03/09 12:10:44;;;;;;;10.32;6.78;;;11.90;63.40;;;;;;5027300;28;20041;-76
2022/03/09 12:13:31;;;;;;;9.98;6.40;;;11.90;63.30;;;;;;5027962;28;20056;-74
2022/03/09 12:16:07;;;;;;;10.27;6.32;;;11.90;63.20;;;;;;5027745;28;20036;-74
2022/03/09 12:18:39;;;;;;;9.77;6.43;;;11.80;63.30;;;;;;5029226;28;20075;-73
2022/03/09 12:21:06;;;;;;;11.40;6.75;;;11.90;63.40;;;;;;5029420;28;20029;-76
2022/03/09 12:23:33;;;;;;;13.10;7.05;;;11.90;63.60;;;;;;5028661;28;20463;-75
2022/03/09 12:26:01;;;;;;;11.38;6.40;;;11.80;63.70;;;;;;5029487;28;20470;-74
2022/03/09 12:28:33;;;;;;;11.27;6.50;;;11.80;63.60;;;;;;5028483;28;20481;-75
2022/03/09 12:31:02;;;;;;;10.35;6.60;;;11.80;63.60;;;;;;5028363;28;20040;-72
2022/03/09 12:33:30;;;;;;;10.73;6.65;;;11.90;63.60;;;;;;5029471;28;20028;-75
2022/03/09 12:36:24;;;;;;;14.50;6.72;;;11.90;63.60;;;;;;5028438;28;20073;-75
2022/03/09 12:38:55;;;;;;;11.98;6.53;;;11.90;63.50;;;;;;5028470;28;20163;-73
2022/03/09 12:41:32;;;;;;;12.20;6.63;;;11.90;63.50;;;;;;5028277;28;20521;-73